createdAt,value
2017-06-14T00:00:41.159Z,11.77
2017-06-14T00:03:08.620Z,9.85
2017-06-14T00:05:36.072Z,10.00
2017-06-14T00:08:03.531Z,8.90
2017-06-14T00:10:30.988Z,8.40
2017-06-14T00:12:58.460Z,8.73
2017-06-14T00:15:25.926Z,8.85
2017-06-14T00:17:53.384Z,10.63
2017-06-14T00:20:20.845Z,9.65
2017-06-14T00:22:48.300Z,10.45
2017-06-14T00:25:15.759Z,10.25
2017-06-14T00:27:43.219Z,12.68
2017-06-14T00:30:10.675Z,10.90
2017-06-14T00:32:38.136Z,9.38
2017-06-14T00:35:05.592Z,9.68
2017-06-14T00:37:33.053Z,10.00
2017-06-14T00:40:00.513Z,12.75
2017-06-14T00:42:27.972Z,9.18
2017-06-14T00:44:55.417Z,8.30
2017-06-14T00:47:22.867Z,9.15
2017-06-14T00:49:50.320Z,9.90
2017-06-14T00:52:17.780Z,9.57
2017-06-14T00:54:45.336Z,9.30
2017-06-14T00:57:12.793Z,9.18
2017-06-14T00:59:40.247Z,8.93
2017-06-14T01:02:07.705Z,8.85
2017-06-14T01:04:35.165Z,9.68
2017-06-14T01:07:02.604Z,9.90
2017-06-14T01:09:30.051Z,9.40
2017-06-14T01:11:58.724Z,9.55
2017-06-14T01:14:26.937Z,8.82
2017-06-14T01:16:54.401Z,11.93
2017-06-14T01:19:21.855Z,9.70
2017-06-14T01:21:49.315Z,10.15
2017-06-14T01:24:16.768Z,9.65
2017-06-14T01:26:44.226Z,10.32
2017-06-14T01:29:11.688Z,10.27
2017-06-14T01:31:39.148Z,12.57
2017-06-14T01:34:06.607Z,13.85
2017-06-14T01:36:34.064Z,10.27
2017-06-14T01:39:01.519Z,9.23
2017-06-14T01:41:28.977Z,12.85
2017-06-14T01:43:56.435Z,12.57
2017-06-14T01:46:23.889Z,12.43
2017-06-14T01:48:51.351Z,12.52
2017-06-14T01:51:18.812Z,13.85
2017-06-14T01:53:46.284Z,12.48
2017-06-14T01:56:13.727Z,10.57
2017-06-14T01:58:41.184Z,9.85
2017-06-14T02:01:08.644Z,9.82
2017-06-14T02:03:36.105Z,8.82
2017-06-14T02:06:03.563Z,8.93
2017-06-14T02:08:31.015Z,8.73
2017-06-14T02:10:58.500Z,8.68
2017-06-14T02:13:25.959Z,12.27
2017-06-14T02:15:53.417Z,10.70
2017-06-14T02:18:20.876Z,10.15
2017-06-14T02:20:48.337Z,8.68
2017-06-14T02:23:15.800Z,10.13
2017-06-14T02:25:43.260Z,9.20
2017-06-14T02:28:10.721Z,10.25
2017-06-14T02:30:38.179Z,11.45
2017-06-14T02:33:05.637Z,9.90
2017-06-14T02:35:33.125Z,12.20
2017-06-14T02:38:00.567Z,13.07
2017-06-14T02:40:28.782Z,11.07
2017-06-14T02:42:56.248Z,12.10
2017-06-14T02:45:23.727Z,13.20
2017-06-14T02:47:51.189Z,13.60
2017-06-14T02:50:18.644Z,11.38
2017-06-14T02:52:46.108Z,12.77
2017-06-14T02:55:13.568Z,10.85
2017-06-14T02:57:41.024Z,11.65
2017-06-14T03:00:08.475Z,12.82
2017-06-14T03:02:36.012Z,10.52
2017-06-14T03:05:03.452Z,13.77
2017-06-14T03:07:30.908Z,12.37
2017-06-14T03:09:58.364Z,10.65
2017-06-14T03:12:25.819Z,10.40
2017-06-14T03:14:53.283Z,10.50
2017-06-14T03:17:20.724Z,9.85
2017-06-14T03:19:48.184Z,12.18
2017-06-14T03:22:16.411Z,11.65
2017-06-14T03:24:43.842Z,9.75
2017-06-14T03:27:11.286Z,9.63
2017-06-14T03:29:38.722Z,8.70
2017-06-14T03:32:06.944Z,9.23
2017-06-14T03:34:34.402Z,13.25
2017-06-14T03:37:01.892Z,12.02
2017-06-14T03:39:29.338Z,9.93
2017-06-14T03:41:58.575Z,9.35
2017-06-14T03:44:26.804Z,10.05
2017-06-14T03:46:54.260Z,8.27
2017-06-14T03:49:21.708Z,8.43
2017-06-14T03:51:49.168Z,9.45
2017-06-14T03:54:16.626Z,10.38
2017-06-14T03:56:44.084Z,11.18
2017-06-14T03:59:11.540Z,9.00
2017-06-14T04:01:39.004Z,14.13
2017-06-14T04:04:06.456Z,11.60
2017-06-14T04:06:33.909Z,11.05
2017-06-14T04:09:01.377Z,13.00
2017-06-14T04:11:28.836Z,11.57
2017-06-14T04:13:56.389Z,9.60
2017-06-14T04:16:23.841Z,11.82
2017-06-14T04:18:51.284Z,9.70
2017-06-14T04:21:18.740Z,9.70
2017-06-14T04:23:46.195Z,9.40
2017-06-14T04:26:13.648Z,11.55
2017-06-14T04:28:41.103Z,12.60
2017-06-14T04:31:09.381Z,13.98
2017-06-14T04:33:37.603Z,9.63
2017-06-14T04:36:05.050Z,9.20
2017-06-14T04:38:32.507Z,8.23
2017-06-14T04:40:59.964Z,11.05
2017-06-14T04:43:27.420Z,9.95
2017-06-14T04:45:54.879Z,12.13
2017-06-14T04:48:22.336Z,11.77
2017-06-14T04:50:49.796Z,12.10
2017-06-14T04:53:17.256Z,10.98
2017-06-14T04:55:44.705Z,8.80
2017-06-14T04:58:12.160Z,11.90
2017-06-14T05:00:39.617Z,8.70
2017-06-14T05:03:07.083Z,8.63
2017-06-14T05:05:34.571Z,11.65
2017-06-14T05:08:02.028Z,8.55
2017-06-14T05:10:29.484Z,8.73
2017-06-14T05:12:56.942Z,8.57
2017-06-14T05:15:24.396Z,8.77
2017-06-14T05:17:51.849Z,11.57
2017-06-14T05:20:19.308Z,12.73
2017-06-14T05:22:46.764Z,10.73
2017-06-14T05:25:14.221Z,11.02
2017-06-14T05:27:41.684Z,10.82
2017-06-14T05:30:09.157Z,12.77
2017-06-14T05:32:36.608Z,11.65
2017-06-14T05:35:04.068Z,11.73
2017-06-14T05:37:31.529Z,10.25
2017-06-14T05:39:58.992Z,12.20
2017-06-14T05:42:26.456Z,11.73
2017-06-14T05:44:53.921Z,10.35
2017-06-14T05:47:21.380Z,11.15
2017-06-14T05:49:49.600Z,12.55
2017-06-14T05:52:17.061Z,11.80
2017-06-14T05:54:44.523Z,11.20
2017-06-14T05:57:11.980Z,11.75
2017-06-14T05:59:39.450Z,12.43
2017-06-14T06:02:06.900Z,11.55
2017-06-14T06:04:34.372Z,10.88
2017-06-14T06:07:01.837Z,11.25
2017-06-14T06:09:29.300Z,10.90
2017-06-14T06:11:58.011Z,12.65
2017-06-14T06:14:26.244Z,10.77
2017-06-14T06:16:53.717Z,11.00
2017-06-14T06:19:21.184Z,10.13
2017-06-14T06:21:48.636Z,9.60
2017-06-14T06:24:16.126Z,10.75
2017-06-14T06:26:44.344Z,10.85
2017-06-14T06:29:11.816Z,10.38
2017-06-14T06:31:39.284Z,10.03
2017-06-14T06:34:06.751Z,10.15
2017-06-14T06:36:34.221Z,9.23
2017-06-14T06:39:01.685Z,10.07
2017-06-14T06:41:29.912Z,10.87
2017-06-14T06:43:57.379Z,9.85
2017-06-14T06:46:24.834Z,9.60
2017-06-14T06:48:52.292Z,11.77
2017-06-14T06:51:19.748Z,10.30
2017-06-14T06:53:47.202Z,11.17
2017-06-14T06:56:14.659Z,11.13
2017-06-14T06:58:42.124Z,10.30
2017-06-14T07:01:09.584Z,10.07
2017-06-14T07:03:37.044Z,11.40
2017-06-14T07:06:04.508Z,9.03
2017-06-14T07:08:31.959Z,11.00
2017-06-14T07:10:59.420Z,10.03
2017-06-14T07:13:26.875Z,9.47
2017-06-14T07:15:54.340Z,11.27
2017-06-14T07:18:21.808Z,10.00
2017-06-14T07:20:49.273Z,10.00
2017-06-14T07:23:16.719Z,9.83
2017-06-14T07:25:44.176Z,10.13
2017-06-14T07:28:11.640Z,10.70
2017-06-14T07:30:39.103Z,10.83
2017-06-14T07:33:06.552Z,10.50
2017-06-14T07:35:34.013Z,10.03
2017-06-14T07:38:01.468Z,10.23
2017-06-14T07:40:29.002Z,10.40
2017-06-14T07:42:56.448Z,9.03
2017-06-14T07:45:23.904Z,9.50
2017-06-14T07:47:51.357Z,9.10
2017-06-14T07:50:18.820Z,10.50
2017-06-14T07:52:46.272Z,11.10
2017-06-14T07:55:13.736Z,8.93
2017-06-14T07:57:41.191Z,9.10
2017-06-14T08:00:08.644Z,9.17
2017-06-14T08:02:36.100Z,9.00
2017-06-14T08:05:03.583Z,9.40
2017-06-14T08:07:31.029Z,9.30
2017-06-14T08:09:58.487Z,8.13
2017-06-14T08:12:25.939Z,10.57
2017-06-14T08:14:53.400Z,10.67
2017-06-14T08:17:20.852Z,10.00
2017-06-14T08:19:48.327Z,10.20
2017-06-14T08:22:15.786Z,9.47
2017-06-14T08:24:43.244Z,10.23
2017-06-14T08:27:10.703Z,9.10
2017-06-14T08:29:38.165Z,10.20
2017-06-14T08:32:05.618Z,8.40
2017-06-14T08:34:33.079Z,12.67
2017-06-14T08:37:00.536Z,12.03
2017-06-14T08:39:28.008Z,12.37
2017-06-14T08:41:55.461Z,11.70
2017-06-14T08:44:22.923Z,13.00
2017-06-14T08:46:50.473Z,12.83
2017-06-14T08:49:17.972Z,12.93
2017-06-14T08:51:45.428Z,11.70
2017-06-14T08:54:12.888Z,11.47
2017-06-14T08:56:40.340Z,11.27
2017-06-14T08:59:07.795Z,11.47
2017-06-14T09:01:35.281Z,10.60
2017-06-14T09:04:03.508Z,10.60
2017-06-14T09:06:31.024Z,10.57
2017-06-14T09:08:58.485Z,10.53
2017-06-14T09:11:25.928Z,8.40
2017-06-14T09:13:54.175Z,10.23
2017-06-14T09:16:21.623Z,9.07
2017-06-14T09:18:49.075Z,10.73
2017-06-14T09:21:16.527Z,10.63
2017-06-14T09:23:43.987Z,9.67
2017-06-14T09:26:11.436Z,8.90
2017-06-14T09:28:38.891Z,9.20
2017-06-14T09:31:06.453Z,8.70
2017-06-14T09:33:33.892Z,8.63
2017-06-14T09:36:01.353Z,8.63
2017-06-14T09:38:28.799Z,8.97
2017-06-14T09:40:57.028Z,8.73
2017-06-14T09:43:24.584Z,8.23
2017-06-14T09:45:52.149Z,7.40
2017-06-14T09:48:19.595Z,7.50
2017-06-14T09:50:47.067Z,6.87
2017-06-14T09:53:14.620Z,7.87
2017-06-14T09:55:42.072Z,7.13
2017-06-14T09:58:09.541Z,8.10
2017-06-14T10:00:36.984Z,7.43
2017-06-14T10:03:04.436Z,7.47
2017-06-14T10:05:31.888Z,7.60
2017-06-14T10:07:59.340Z,8.93
2017-06-14T10:10:26.791Z,7.20
2017-06-14T10:12:54.252Z,7.43
2017-06-14T10:15:21.701Z,7.40
2017-06-14T10:17:49.204Z,6.70
2017-06-14T10:20:16.659Z,7.37
2017-06-14T10:22:44.197Z,7.00
2017-06-14T10:25:11.629Z,6.63
2017-06-14T10:27:39.081Z,5.70
2017-06-14T10:32:44.004Z,6.60
2017-06-14T10:35:11.457Z,6.57
2017-06-14T10:37:38.909Z,6.47
2017-06-14T10:40:06.350Z,7.37
2017-06-14T10:42:33.788Z,7.00
2017-06-14T10:45:01.230Z,6.50
2017-06-14T10:47:28.671Z,7.30
2017-06-14T10:49:56.887Z,7.30
2017-06-14T10:52:24.323Z,5.83
2017-06-14T10:54:51.775Z,5.93
2017-06-14T10:57:19.225Z,6.27
2017-06-14T10:59:47.451Z,6.17
2017-06-14T11:02:14.912Z,7.00
2017-06-14T11:04:42.348Z,6.67
2017-06-14T11:07:09.800Z,6.43
2017-06-14T11:09:37.258Z,6.60
2017-06-14T11:12:04.695Z,5.70
2017-06-14T11:14:32.139Z,6.17
2017-06-14T11:17:00.360Z,5.07
2017-06-14T11:19:27.807Z,5.53
2017-06-14T11:21:55.256Z,6.37
2017-06-14T11:24:22.696Z,5.63
2017-06-14T11:26:50.917Z,5.40
2017-06-14T11:29:18.372Z,5.63
2017-06-14T11:31:45.844Z,5.27
2017-06-14T11:34:13.296Z,5.20
2017-06-14T11:36:40.775Z,5.03
2017-06-14T11:39:08.228Z,4.93
2017-06-14T11:41:35.678Z,4.77
2017-06-14T11:44:03.123Z,4.60
2017-06-14T11:46:30.585Z,5.73
2017-06-14T11:48:58.040Z,4.63
2017-06-14T11:51:25.492Z,4.43
2017-06-14T11:53:52.999Z,4.47
2017-06-14T11:56:21.220Z,4.40
2017-06-14T11:58:48.680Z,4.97
2017-06-14T12:01:16.132Z,5.30
2017-06-14T12:03:43.577Z,4.33
2017-06-14T12:06:11.028Z,4.20
2017-06-14T12:08:38.482Z,3.77
2017-06-14T12:11:05.925Z,3.70
2017-06-14T12:13:34.153Z,3.83
2017-06-14T12:16:01.597Z,3.90
2017-06-14T12:18:29.056Z,3.90
2017-06-14T12:20:56.617Z,4.00
2017-06-14T12:23:24.065Z,4.00
2017-06-14T12:25:51.513Z,3.80
2017-06-14T12:28:18.968Z,3.57
2017-06-14T12:30:46.415Z,3.63
2017-06-14T12:33:14.624Z,4.30
2017-06-14T12:35:42.079Z,4.00
2017-06-14T12:38:09.537Z,3.63
2017-06-14T12:40:36.992Z,4.10
2017-06-14T12:43:04.436Z,4.07
2017-06-14T12:45:31.879Z,3.47
2017-06-14T12:48:00.100Z,3.90
2017-06-14T12:50:27.544Z,4.27
2017-06-14T12:52:55.004Z,4.43
2017-06-14T12:55:22.447Z,4.43
2017-06-14T12:57:49.903Z,4.33
2017-06-14T13:00:17.360Z,4.70
2017-06-14T13:02:44.800Z,4.43
2017-06-14T13:05:13.026Z,4.10
2017-06-14T13:07:40.480Z,4.77
2017-06-14T13:10:07.936Z,4.50
2017-06-14T13:12:35.429Z,4.80
2017-06-14T13:15:02.881Z,4.77
2017-06-14T13:17:30.328Z,3.90
2017-06-14T13:19:57.769Z,3.77
2017-06-14T13:22:25.220Z,4.37
2017-06-14T13:24:52.675Z,4.00
2017-06-14T13:27:20.125Z,4.33
2017-06-14T13:29:47.565Z,4.53
2017-06-14T13:32:15.021Z,4.93
2017-06-14T13:34:42.462Z,3.97
2017-06-14T13:37:09.920Z,4.13
2017-06-14T13:39:38.141Z,4.00
2017-06-14T13:42:05.597Z,4.87
2017-06-14T13:44:33.116Z,3.73
2017-06-14T13:47:01.338Z,4.57
2017-06-14T13:49:28.788Z,4.40
2017-06-14T13:51:56.233Z,4.70
2017-06-14T13:54:23.679Z,4.40
2017-06-14T13:56:51.128Z,4.90
2017-06-14T13:59:18.584Z,4.63
2017-06-14T14:01:46.894Z,4.50
2017-06-14T14:04:14.332Z,4.67
2017-06-14T14:06:41.776Z,4.70
2017-06-14T14:09:10.000Z,4.70
2017-06-14T14:11:37.447Z,4.60
2017-06-14T14:14:04.898Z,4.50
2017-06-14T14:16:32.339Z,4.70
2017-06-14T14:18:59.800Z,5.27
2017-06-14T14:21:27.236Z,5.07
2017-06-14T14:23:54.688Z,4.70
2017-06-14T14:26:22.869Z,4.90
2017-06-14T14:28:50.321Z,4.43
2017-06-14T14:31:17.768Z,4.50
2017-06-14T14:33:45.216Z,4.87
2017-06-14T14:36:12.668Z,5.10
2017-06-14T14:38:40.120Z,4.63
2017-06-14T14:41:07.574Z,5.07
2017-06-14T14:43:35.031Z,4.40
2017-06-14T14:46:02.472Z,4.67
2017-06-14T14:48:29.928Z,4.97
2017-06-14T14:50:57.376Z,4.80
2017-06-14T14:53:24.828Z,4.70
2017-06-14T14:55:52.295Z,4.83
2017-06-14T14:58:19.732Z,4.90
2017-06-14T15:00:47.184Z,4.33
2017-06-14T15:03:14.628Z,4.10
2017-06-14T15:05:42.076Z,4.53
2017-06-14T15:08:09.528Z,4.40
2017-06-14T15:10:36.981Z,3.80
2017-06-14T15:13:04.432Z,4.07
2017-06-14T15:15:31.890Z,4.00
2017-06-14T15:18:00.144Z,4.30
2017-06-14T15:20:27.600Z,4.20
2017-06-14T15:22:55.154Z,4.23
2017-06-14T15:25:22.592Z,4.03
2017-06-14T15:27:50.044Z,4.20
2017-06-14T15:30:18.260Z,4.80
2017-06-14T15:32:45.761Z,4.40
2017-06-14T15:35:13.204Z,4.50
2017-06-14T15:37:40.649Z,4.07
2017-06-14T15:40:08.104Z,3.80
2017-06-14T15:42:35.556Z,4.00
2017-06-14T15:45:03.008Z,4.20
2017-06-14T15:47:30.459Z,4.60
2017-06-14T15:49:57.911Z,5.00
2017-06-14T15:52:25.362Z,4.47
2017-06-14T15:54:52.804Z,4.43
2017-06-14T15:57:20.251Z,4.30
2017-06-14T15:59:48.476Z,4.27
2017-06-14T16:02:15.932Z,4.03
2017-06-14T16:04:43.372Z,4.57
2017-06-14T16:07:10.824Z,5.00
2017-06-14T16:09:38.276Z,4.33
2017-06-14T16:12:05.724Z,4.50
2017-06-14T16:14:33.171Z,4.33
2017-06-14T16:17:01.384Z,4.30
2017-06-14T16:19:28.836Z,4.20
2017-06-14T16:21:56.276Z,4.43
2017-06-14T16:24:23.734Z,3.97
2017-06-14T16:26:51.180Z,4.13
2017-06-14T16:29:18.628Z,4.30
2017-06-14T16:31:46.067Z,4.47
2017-06-14T16:34:13.517Z,3.87
2017-06-14T16:36:40.971Z,4.20
2017-06-14T16:39:08.420Z,4.20
2017-06-14T16:41:35.873Z,4.03
2017-06-14T16:44:03.328Z,4.40
2017-06-14T16:46:30.768Z,4.23
2017-06-14T16:48:58.221Z,4.30
2017-06-14T16:51:25.682Z,4.60
2017-06-14T16:53:53.132Z,4.30
2017-06-14T16:56:20.580Z,4.50
2017-06-14T16:58:48.036Z,4.00
2017-06-14T17:01:15.484Z,4.17
2017-06-14T17:03:42.925Z,4.23
2017-06-14T17:06:10.396Z,3.60
2017-06-14T17:08:37.843Z,4.77
2017-06-14T17:11:05.292Z,4.43
2017-06-14T17:13:32.741Z,3.97
2017-06-14T17:16:00.191Z,6.40
2017-06-14T17:18:27.731Z,5.77
2017-06-14T17:20:55.174Z,5.07
2017-06-14T17:23:22.625Z,4.23
2017-06-14T17:25:50.072Z,4.20
2017-06-14T17:28:18.292Z,4.90
2017-06-14T17:30:45.753Z,4.67
2017-06-14T17:33:13.203Z,4.37
2017-06-14T17:35:40.657Z,4.27
2017-06-14T17:38:08.109Z,4.60
2017-06-14T17:40:35.568Z,4.63
2017-06-14T17:43:03.022Z,4.30
2017-06-14T17:45:30.472Z,4.30
2017-06-14T17:47:57.915Z,4.30
2017-06-14T17:50:25.416Z,4.17
2017-06-14T17:52:52.872Z,5.67
2017-06-14T17:55:20.317Z,5.10
2017-06-14T17:57:47.775Z,10.37
2017-06-14T18:00:15.233Z,8.83
2017-06-14T18:02:42.684Z,9.40
2017-06-14T18:05:10.128Z,5.83
2017-06-14T18:07:37.632Z,4.63
2017-06-14T18:10:05.105Z,4.20
2017-06-14T18:12:32.560Z,3.97
2017-06-14T18:15:00.009Z,3.90
2017-06-14T18:17:27.453Z,4.33
2017-06-14T18:19:54.904Z,3.97
2017-06-14T18:22:22.349Z,3.87
2017-06-14T18:24:49.806Z,4.40
2017-06-14T18:27:17.256Z,3.57
2017-06-14T18:29:44.705Z,4.80
2017-06-14T18:32:12.148Z,4.60
2017-06-14T18:34:39.600Z,4.60
2017-06-14T18:37:07.819Z,4.50
2017-06-14T18:39:35.255Z,4.70
2017-06-14T18:42:02.708Z,5.40
2017-06-14T18:44:30.149Z,5.00
2017-06-14T18:46:58.362Z,5.00
2017-06-14T18:49:25.812Z,4.30
2017-06-14T18:51:53.282Z,5.63
2017-06-14T18:54:20.717Z,4.43
2017-06-14T18:56:48.164Z,4.87
2017-06-14T18:59:16.384Z,5.30
2017-06-14T19:01:43.845Z,5.23
2017-06-14T19:04:11.294Z,4.30
2017-06-14T19:06:38.752Z,5.50
2017-06-14T19:09:06.188Z,7.27
2017-06-14T19:11:33.645Z,7.20
2017-06-14T19:14:01.147Z,6.60
2017-06-14T19:16:28.592Z,6.70
2017-06-14T19:18:56.044Z,5.97
2017-06-14T19:21:32.812Z,6.10
2017-06-14T19:24:05.836Z,5.93
2017-06-14T19:26:33.288Z,5.90
2017-06-14T19:29:00.730Z,5.33
2017-06-14T19:31:28.177Z,5.70
2017-06-14T19:34:10.498Z,5.77
2017-06-14T19:36:43.496Z,5.60
2017-06-14T19:39:10.930Z,5.33
2017-06-14T19:41:38.384Z,6.13
2017-06-14T19:44:05.842Z,5.47
2017-06-14T19:46:33.532Z,6.13
2017-06-14T19:49:00.980Z,5.70
2017-06-14T19:51:28.434Z,6.30
2017-06-14T19:53:55.920Z,6.13
2017-06-14T19:56:23.372Z,6.50
2017-06-14T19:58:50.828Z,6.23
2017-06-14T20:01:18.277Z,6.50
2017-06-14T20:03:45.728Z,5.97
2017-06-14T20:06:13.171Z,7.20
2017-06-14T20:08:40.629Z,7.43
2017-06-14T20:11:08.088Z,7.33
2017-06-14T20:13:35.541Z,7.80
2017-06-14T20:16:02.984Z,7.63
2017-06-14T20:18:30.505Z,6.40
2017-06-14T20:20:57.936Z,6.30
2017-06-14T20:23:25.412Z,7.00
2017-06-14T20:25:52.913Z,7.33
2017-06-14T20:28:20.379Z,8.50
2017-06-14T20:30:47.832Z,9.07
2017-06-14T20:33:15.392Z,14.60
2017-06-14T20:35:42.855Z,11.77
2017-06-14T20:38:10.317Z,9.40
2017-06-14T20:40:37.764Z,9.00
2017-06-14T20:43:05.268Z,11.80
2017-06-14T20:45:32.740Z,9.70
2017-06-14T20:48:00.195Z,7.77
2017-06-14T20:50:27.640Z,7.63
2017-06-14T20:52:55.097Z,7.73
2017-06-14T20:55:22.566Z,8.93
2017-06-14T20:57:50.020Z,8.53
2017-06-14T21:00:17.479Z,9.97
2017-06-14T21:02:44.945Z,9.63
2017-06-14T21:05:12.392Z,8.67
2017-06-14T21:07:39.840Z,8.50
2017-06-14T21:10:07.303Z,9.30
2017-06-14T21:12:34.760Z,7.87
2017-06-14T21:15:02.217Z,7.40
2017-06-14T21:17:29.673Z,8.07
2017-06-14T21:19:57.128Z,9.07
2017-06-14T21:22:24.593Z,8.20
2017-06-14T21:24:52.044Z,9.10
2017-06-14T21:27:19.514Z,9.37
2017-06-14T21:29:46.968Z,8.77
2017-06-14T21:32:14.428Z,7.63
2017-06-14T21:34:41.890Z,8.80
2017-06-14T21:37:09.412Z,8.37
2017-06-14T21:39:36.868Z,8.13
2017-06-14T21:42:04.328Z,7.73
2017-06-14T21:44:31.796Z,6.90
2017-06-14T21:46:59.239Z,7.37
2017-06-14T21:49:26.688Z,7.97
2017-06-14T21:51:54.144Z,7.60
2017-06-14T21:54:21.592Z,7.20
2017-06-14T21:56:49.044Z,8.23
2017-06-14T21:59:16.496Z,8.00
2017-06-14T22:01:44.784Z,7.70
2017-06-14T22:04:12.244Z,8.33
2017-06-14T22:06:39.691Z,7.50
2017-06-14T22:09:07.911Z,7.07
2017-06-14T22:11:35.356Z,7.75
2017-06-14T22:14:02.820Z,8.40
2017-06-14T22:16:30.268Z,7.63
2017-06-14T22:18:57.735Z,7.20
2017-06-14T22:21:25.202Z,8.40
2017-06-14T22:23:52.661Z,8.13
2017-06-14T22:26:20.150Z,8.40
2017-06-14T22:28:47.592Z,7.90
2017-06-14T22:31:15.052Z,8.40
2017-06-14T22:33:42.596Z,8.73
2017-06-14T22:36:10.044Z,8.30
2017-06-14T22:38:37.495Z,8.47
2017-06-14T22:41:04.960Z,7.77
2017-06-14T22:43:32.426Z,7.53
2017-06-14T22:45:59.883Z,7.13
2017-06-14T22:48:27.338Z,6.63
2017-06-14T22:50:54.786Z,7.03
2017-06-14T22:53:22.243Z,5.90
2017-06-14T22:55:49.717Z,7.03
2017-06-14T22:58:17.176Z,6.70
2017-06-14T23:00:44.633Z,6.77
2017-06-14T23:03:12.092Z,7.10
2017-06-14T23:05:39.548Z,9.03
2017-06-14T23:08:07.011Z,8.60
2017-06-14T23:10:34.463Z,9.27
2017-06-14T23:13:02.025Z,8.20
2017-06-14T23:15:29.464Z,8.37
2017-06-14T23:17:56.922Z,7.40
2017-06-14T23:20:24.412Z,7.53
2017-06-14T23:22:51.868Z,8.20
2017-06-14T23:25:19.317Z,8.37
2017-06-14T23:27:46.784Z,7.90
2017-06-14T23:30:14.244Z,7.30
2017-06-14T23:32:41.704Z,8.40
2017-06-14T23:35:09.173Z,8.30
2017-06-14T23:37:36.626Z,7.70
2017-06-14T23:40:04.088Z,8.38
2017-06-14T23:42:31.543Z,7.77
2017-06-14T23:44:59.009Z,8.27
2017-06-14T23:47:26.445Z,9.20
2017-06-14T23:49:53.894Z,8.40
2017-06-14T23:52:21.427Z,8.73
2017-06-14T23:54:48.884Z,7.75
2017-06-14T23:57:16.343Z,7.33
2017-06-14T23:59:43.804Z,7.53
